createdAt,value
2018-04-13T00:00:26.788Z,35.37
2018-04-13T00:02:53.065Z,39.83
2018-04-13T00:05:19.329Z,39.47
2018-04-13T00:07:46.064Z,40.20
2018-04-13T00:10:12.323Z,39.47
2018-04-13T00:12:39.323Z,38.40
2018-04-13T00:15:05.533Z,39.63
2018-04-13T00:17:31.780Z,43.80
2018-04-13T00:19:58.035Z,43.03
2018-04-13T00:22:24.241Z,42.33
2018-04-13T00:24:50.460Z,43.10
2018-04-13T00:27:16.744Z,44.40
2018-04-13T00:29:42.983Z,44.17
2018-04-13T00:32:09.949Z,44.20
2018-04-13T00:34:36.171Z,40.17
2018-04-13T00:37:02.380Z,41.40
2018-04-13T00:39:29.338Z,42.90
2018-04-13T00:41:55.563Z,44.20
2018-04-13T00:44:21.873Z,44.03
2018-04-13T00:46:48.888Z,43.77
2018-04-13T00:49:15.198Z,42.63
2018-04-13T00:51:41.412Z,47.33
2018-04-13T00:54:07.609Z,45.60
2018-04-13T00:56:34.567Z,47.17
2018-04-13T00:59:00.781Z,47.37
2018-04-13T01:01:27.820Z,43.60
2018-04-13T01:03:54.919Z,47.20
2018-04-13T01:06:21.201Z,46.93
2018-04-13T01:08:47.483Z,48.10
2018-04-13T01:11:14.412Z,51.63
2018-04-13T01:13:40.651Z,52.10
2018-04-13T01:16:06.912Z,52.37
2018-04-13T01:18:33.128Z,54.93
2018-04-13T01:20:59.404Z,54.67
2018-04-13T01:23:25.633Z,56.77
2018-04-13T01:25:51.958Z,50.93
2018-04-13T01:28:18.933Z,53.90
2018-04-13T01:30:45.120Z,56.80
2018-04-13T01:33:11.352Z,53.60
2018-04-13T01:35:38.280Z,58.77
2018-04-13T01:38:05.217Z,59.23
2018-04-13T01:40:32.184Z,55.00
2018-04-13T01:42:59.225Z,55.70
2018-04-13T01:45:25.620Z,53.77
2018-04-13T01:47:51.872Z,57.23
2018-04-13T01:50:18.142Z,54.00
2018-04-13T01:52:44.504Z,56.80
2018-04-13T01:55:10.765Z,55.30
2018-04-13T01:57:37.706Z,56.03
2018-04-13T02:00:04.016Z,58.90
2018-04-13T02:02:30.277Z,56.30
2018-04-13T02:04:56.633Z,57.03
2018-04-13T02:07:22.857Z,61.17
2018-04-13T02:09:49.086Z,65.37
2018-04-13T02:12:15.291Z,64.90
2018-04-13T02:14:42.272Z,63.10
2018-04-13T02:17:08.572Z,62.47
2018-04-13T02:19:34.893Z,62.40
2018-04-13T02:22:01.889Z,61.63
2018-04-13T02:24:28.857Z,60.57
2018-04-13T02:26:55.343Z,58.40
2018-04-13T02:29:21.615Z,61.03
2018-04-13T02:31:47.814Z,60.43
2018-04-13T02:34:14.034Z,59.40
2018-04-13T02:36:40.221Z,60.97
2018-04-13T02:39:06.448Z,60.47
2018-04-13T02:41:32.810Z,58.57
2018-04-13T02:43:59.905Z,66.13
2018-04-13T02:46:26.107Z,62.60
2018-04-13T02:48:52.335Z,68.40
2018-04-13T02:51:18.518Z,70.20
2018-04-13T02:53:45.534Z,66.83
2018-04-13T02:56:11.903Z,69.83
2018-04-13T02:58:38.228Z,65.23
2018-04-13T03:01:04.476Z,76.83
2018-04-13T03:03:30.697Z,66.93
2018-04-13T03:05:56.996Z,65.03
2018-04-13T03:08:24.272Z,64.43
2018-04-13T03:10:50.485Z,63.00
2018-04-13T03:13:17.516Z,64.57
2018-04-13T03:15:43.767Z,62.53
2018-04-13T03:18:10.085Z,66.67
2018-04-13T03:20:37.186Z,71.57
2018-04-13T03:23:03.413Z,72.50
2018-04-13T03:25:29.633Z,70.53
2018-04-13T03:27:55.833Z,73.90
2018-04-13T03:30:22.044Z,80.70
2018-04-13T03:32:49.000Z,74.77
2018-04-13T03:35:15.980Z,69.40
2018-04-13T03:37:42.191Z,70.50
2018-04-13T03:40:08.408Z,69.67
2018-04-13T03:42:34.681Z,68.23
2018-04-13T03:45:00.937Z,75.50
2018-04-13T03:47:27.917Z,65.27
2018-04-13T03:49:54.160Z,61.97
2018-04-13T03:52:20.561Z,63.80
2018-04-13T03:54:46.855Z,60.60
2018-04-13T03:57:13.829Z,61.83
2018-04-13T03:59:40.095Z,63.73
2018-04-13T04:02:06.366Z,60.30
2018-04-13T04:04:32.716Z,58.30
2018-04-13T04:06:59.667Z,59.07
2018-04-13T04:09:26.667Z,57.60
2018-04-13T04:11:52.894Z,60.40
2018-04-13T04:14:19.164Z,58.53
2018-04-13T04:16:45.444Z,58.20
2018-04-13T04:19:11.681Z,58.47
2018-04-13T04:21:50.163Z,57.07
2018-04-13T04:24:28.858Z,55.37
2018-04-13T04:26:55.881Z,55.67
2018-04-13T04:29:22.272Z,64.50
2018-04-13T04:31:48.501Z,71.07
2018-04-13T04:34:14.767Z,58.13
2018-04-13T04:36:41.744Z,65.67
2018-04-13T04:39:08.053Z,63.67
2018-04-13T04:41:35.099Z,64.83
2018-04-13T04:44:02.081Z,64.50
2018-04-13T04:46:28.328Z,63.00
2018-04-13T04:48:55.643Z,61.20
2018-04-13T04:51:22.059Z,59.17
2018-04-13T04:53:49.077Z,61.60
2018-04-13T04:56:15.298Z,58.03
2018-04-13T04:58:41.545Z,61.27
2018-04-13T05:01:07.748Z,58.57
2018-04-13T05:03:34.009Z,64.00
2018-04-13T05:06:01.056Z,87.60
2018-04-13T05:08:27.532Z,104.60
2018-04-13T05:10:53.997Z,95.67
2018-04-13T05:13:20.326Z,83.63
2018-04-13T05:15:46.561Z,79.13
2018-04-13T05:18:12.812Z,90.53
2018-04-13T05:20:39.781Z,89.53
2018-04-13T05:23:06.843Z,94.40
2018-04-13T05:25:33.164Z,101.10
2018-04-13T05:27:59.506Z,104.93
2018-04-13T05:30:25.780Z,121.57
2018-04-13T05:32:51.992Z,102.93
2018-04-13T05:35:18.292Z,113.10
2018-04-13T05:37:45.234Z,115.30
2018-04-13T05:40:11.594Z,123.07
2018-04-13T05:42:37.895Z,125.70
2018-04-13T05:45:04.195Z,120.37
2018-04-13T05:47:31.158Z,111.03
2018-04-13T05:49:57.469Z,119.63
2018-04-13T05:52:23.716Z,126.63
2018-04-13T05:54:50.670Z,125.33
2018-04-13T05:57:16.878Z,108.70
2018-04-13T05:59:43.852Z,130.20
2018-04-13T06:02:10.112Z,120.40
2018-04-13T06:04:36.386Z,97.53
2018-04-13T06:07:02.639Z,73.73
2018-04-13T06:09:28.824Z,70.37
2018-04-13T06:11:55.088Z,70.83
2018-04-13T06:14:21.343Z,73.93
2018-04-13T06:16:47.618Z,82.10
2018-04-13T06:19:14.012Z,85.03
2018-04-13T06:21:41.031Z,79.13
2018-04-13T06:24:10.143Z,92.47
2018-04-13T06:26:36.465Z,92.20
2018-04-13T06:29:02.875Z,86.20
2018-04-13T06:31:29.167Z,90.20
2018-04-13T06:33:55.377Z,88.83
2018-04-13T06:36:21.643Z,85.40
2018-04-13T06:38:48.635Z,91.80
2018-04-13T06:41:14.878Z,93.37
2018-04-13T06:43:41.226Z,94.20
2018-04-13T06:46:07.532Z,94.53
2018-04-13T06:48:33.895Z,89.33
2018-04-13T06:51:00.185Z,92.97
2018-04-13T06:53:26.436Z,90.20
2018-04-13T06:55:52.732Z,86.10
2018-04-13T06:58:19.068Z,97.37
2018-04-13T07:00:45.416Z,99.90
2018-04-13T07:03:11.703Z,95.87
2018-04-13T07:05:37.934Z,97.70
2018-04-13T07:08:04.193Z,97.23
2018-04-13T07:10:30.424Z,94.30
2018-04-13T07:12:56.647Z,87.83
2018-04-13T07:15:22.879Z,83.63
2018-04-13T07:17:49.416Z,79.03
2018-04-13T07:20:15.704Z,78.57
2018-04-13T07:22:41.924Z,75.13
2018-04-13T07:25:08.130Z,75.63
2018-04-13T07:27:35.118Z,72.00
2018-04-13T07:30:01.385Z,71.93
2018-04-13T07:32:27.643Z,77.87
2018-04-13T07:34:54.119Z,77.67
2018-04-13T07:37:20.940Z,74.57
2018-04-13T07:39:47.330Z,78.57
2018-04-13T07:42:13.413Z,79.97
2018-04-13T07:44:39.948Z,81.17
2018-04-13T07:47:06.171Z,82.60
2018-04-13T07:49:32.448Z,79.57
2018-04-13T07:51:58.713Z,83.73
2018-04-13T07:54:25.781Z,83.93
2018-04-13T07:56:52.018Z,87.13
2018-04-13T07:59:18.272Z,82.93
2018-04-13T08:01:44.507Z,87.90
2018-04-13T08:04:10.742Z,87.83
2018-04-13T08:06:37.736Z,89.73
2018-04-13T08:09:04.992Z,88.60
2018-04-13T08:11:31.254Z,83.50
2018-04-13T08:13:57.604Z,83.07
2018-04-13T08:16:24.074Z,81.10
2018-04-13T08:18:50.324Z,76.57
2018-04-13T08:21:17.298Z,78.87
2018-04-13T08:23:44.268Z,80.73
2018-04-13T08:26:11.222Z,77.40
2018-04-13T08:28:37.469Z,81.70
2018-04-13T08:31:03.734Z,79.87
2018-04-13T08:33:30.707Z,80.57
2018-04-13T08:35:56.947Z,77.07
2018-04-13T08:38:23.223Z,75.73
2018-04-13T08:40:49.508Z,74.03
2018-04-13T08:43:15.825Z,72.90
2018-04-13T08:45:42.088Z,75.63
2018-04-13T08:48:09.129Z,71.63
2018-04-13T08:50:35.442Z,68.27
2018-04-13T08:53:01.690Z,64.83
2018-04-13T08:55:27.965Z,66.40
2018-04-13T08:57:54.173Z,63.43
2018-04-13T09:00:20.393Z,64.57
2018-04-13T09:02:46.652Z,63.40
2018-04-13T09:05:12.873Z,62.40
2018-04-13T09:07:39.858Z,63.67
2018-04-13T09:10:06.184Z,60.13
2018-04-13T09:12:33.327Z,60.77
2018-04-13T09:15:00.269Z,57.53
2018-04-13T09:17:27.237Z,54.53
2018-04-13T09:19:53.487Z,56.27
2018-04-13T09:22:19.725Z,54.57
2018-04-13T09:24:45.956Z,51.20
2018-04-13T09:27:12.280Z,42.03
2018-04-13T09:29:38.519Z,39.57
2018-04-13T09:32:04.758Z,36.80
2018-04-13T09:34:31.020Z,36.43
2018-04-13T09:36:57.265Z,35.47
2018-04-13T09:39:24.176Z,33.77
2018-04-13T09:41:51.200Z,30.10
2018-04-13T09:44:17.484Z,29.67
2018-04-13T09:46:43.764Z,29.40
2018-04-13T09:49:10.176Z,29.87
2018-04-13T09:51:36.388Z,28.53
2018-04-13T09:54:02.713Z,29.87
2018-04-13T09:56:29.009Z,30.53
2018-04-13T09:58:55.234Z,33.07
2018-04-13T10:01:21.643Z,31.43
2018-04-13T10:03:48.896Z,31.20
2018-04-13T10:06:15.945Z,31.50
2018-04-13T10:08:42.184Z,31.30
2018-04-13T10:11:09.157Z,32.43
2018-04-13T10:13:35.365Z,29.97
2018-04-13T10:16:01.615Z,30.13
2018-04-13T10:18:27.872Z,29.07
2018-04-13T10:20:54.162Z,29.53
2018-04-13T10:23:20.412Z,28.27
2018-04-13T10:25:46.652Z,26.47
2018-04-13T10:28:12.916Z,28.40
2018-04-13T10:30:39.177Z,28.83
2018-04-13T10:33:05.410Z,28.53
2018-04-13T10:35:31.629Z,28.27
2018-04-13T10:37:57.843Z,29.30
2018-04-13T10:40:24.873Z,28.63
2018-04-13T10:42:51.347Z,27.47
2018-04-13T10:45:17.566Z,26.40
2018-04-13T10:47:43.860Z,27.03
2018-04-13T10:50:10.837Z,25.73
2018-04-13T10:52:37.074Z,23.17
2018-04-13T10:55:03.300Z,22.00
2018-04-13T10:57:29.559Z,20.47
2018-04-13T10:59:55.895Z,20.97
2018-04-13T11:02:22.193Z,20.33
2018-04-13T11:04:48.396Z,19.33
2018-04-13T11:07:15.364Z,21.17
2018-04-13T11:09:41.608Z,20.30
2018-04-13T11:12:07.837Z,20.40
2018-04-13T11:14:34.872Z,19.10
2018-04-13T11:17:01.150Z,19.40
2018-04-13T11:19:27.434Z,17.37
2018-04-13T11:21:53.672Z,16.10
2018-04-13T11:24:19.956Z,14.43
2018-04-13T11:26:46.908Z,14.23
2018-04-13T11:29:13.222Z,13.33
2018-04-13T11:31:39.572Z,12.07
2018-04-13T11:34:05.964Z,13.00
2018-04-13T11:36:33.000Z,13.57
2018-04-13T11:38:59.265Z,13.17
2018-04-13T11:41:25.512Z,13.07
2018-04-13T11:43:51.720Z,12.70
2018-04-13T11:46:17.948Z,12.63
2018-04-13T11:48:44.929Z,12.53
2018-04-13T11:51:11.164Z,12.90
2018-04-13T11:53:37.477Z,14.70
2018-04-13T11:56:03.767Z,19.40
2018-04-13T11:58:30.843Z,20.37
2018-04-13T12:00:57.065Z,43.20
2018-04-13T12:03:23.252Z,105.93
2018-04-13T12:05:49.557Z,16.03
2018-04-13T12:08:15.911Z,22.97
2018-04-13T12:10:43.721Z,15.93
2018-04-13T12:13:09.973Z,20.67
2018-04-13T12:15:37.137Z,12.67
2018-04-13T12:18:03.400Z,12.03
2018-04-13T12:20:30.368Z,11.30
2018-04-13T12:22:56.685Z,11.17
2018-04-13T12:25:23.844Z,11.30
2018-04-13T12:27:50.149Z,12.07
2018-04-13T12:30:16.520Z,10.97
2018-04-13T12:32:42.822Z,10.57
2018-04-13T12:35:09.200Z,10.37
2018-04-13T12:37:35.462Z,11.03
2018-04-13T12:40:01.735Z,10.00
2018-04-13T12:42:27.931Z,11.03
2018-04-13T12:44:54.166Z,10.63
2018-04-13T12:47:21.140Z,10.33
2018-04-13T12:49:47.369Z,9.63
2018-04-13T12:52:13.616Z,9.33
2018-04-13T12:54:40.011Z,9.00
2018-04-13T12:57:06.185Z,9.07
2018-04-13T12:59:32.463Z,8.90
2018-04-13T13:01:58.721Z,9.23
2018-04-13T13:04:24.978Z,8.93
2018-04-13T13:06:51.216Z,9.70
2018-04-13T13:09:17.537Z,9.23
2018-04-13T13:11:44.554Z,8.93
2018-04-13T13:14:10.829Z,8.37
2018-04-13T13:16:37.789Z,8.57
2018-04-13T13:19:04.055Z,8.13
2018-04-13T13:21:31.631Z,8.67
2018-04-13T13:23:57.885Z,8.33
2018-04-13T13:26:24.177Z,7.77
2018-04-13T13:28:50.638Z,6.10
2018-04-13T13:31:17.968Z,5.50
2018-04-13T13:33:44.437Z,5.40
2018-04-13T13:36:10.682Z,5.30
2018-04-13T13:38:37.090Z,4.90
2018-04-13T13:41:03.351Z,5.30
2018-04-13T13:43:29.708Z,4.97
2018-04-13T13:45:56.097Z,5.40
2018-04-13T13:48:22.453Z,5.60
2018-04-13T13:50:48.749Z,5.00
2018-04-13T13:53:15.569Z,5.77
2018-04-13T13:55:42.691Z,7.13
2018-04-13T13:58:08.919Z,7.73
2018-04-13T14:00:35.169Z,8.93
2018-04-13T14:03:01.494Z,8.70
2018-04-13T14:05:27.791Z,9.07
2018-04-13T14:07:54.219Z,10.23
2018-04-13T14:10:20.466Z,11.60
2018-04-13T14:12:46.690Z,11.23
2018-04-13T14:15:12.954Z,11.20
2018-04-13T14:17:39.259Z,11.33
2018-04-13T14:20:05.506Z,11.43
2018-04-13T14:22:31.781Z,10.73
2018-04-13T14:24:58.806Z,11.00
2018-04-13T14:27:25.043Z,11.60
2018-04-13T14:29:52.015Z,11.37
2018-04-13T14:32:18.244Z,12.77
2018-04-13T14:34:44.458Z,11.37
2018-04-13T14:37:11.500Z,11.30
2018-04-13T14:39:38.520Z,12.93
2018-04-13T14:42:04.919Z,11.73
2018-04-13T14:44:31.253Z,11.73
2018-04-13T14:46:57.478Z,11.53
2018-04-13T14:49:23.713Z,11.27
2018-04-13T14:51:49.932Z,11.57
2018-04-13T14:54:16.281Z,11.50
2018-04-13T14:56:42.517Z,11.37
2018-04-13T14:59:08.737Z,12.43
2018-04-13T15:01:35.012Z,13.47
2018-04-13T15:04:01.300Z,13.20
2018-04-13T15:06:27.521Z,13.17
2018-04-13T15:08:54.525Z,14.17
2018-04-13T15:11:20.753Z,14.37
2018-04-13T15:13:47.080Z,14.00
2018-04-13T15:16:13.364Z,13.93
2018-04-13T15:18:39.709Z,16.67
2018-04-13T15:21:06.024Z,15.50
2018-04-13T15:23:32.292Z,15.67
2018-04-13T15:25:58.497Z,15.80
2018-04-13T15:28:25.657Z,16.53
2018-04-13T15:30:51.865Z,16.40
2018-04-13T15:33:18.138Z,16.67
2018-04-13T15:35:44.341Z,16.33
2018-04-13T15:38:10.658Z,17.70
2018-04-13T15:40:37.638Z,18.10
2018-04-13T15:43:03.879Z,18.97
2018-04-13T15:45:30.119Z,19.20
2018-04-13T15:47:56.389Z,18.13
2018-04-13T15:50:23.481Z,19.03
2018-04-13T15:52:49.706Z,18.50
2018-04-13T15:55:15.983Z,18.83
2018-04-13T15:57:43.068Z,17.73
2018-04-13T16:00:09.380Z,19.23
2018-04-13T16:02:36.350Z,20.83
2018-04-13T16:05:02.650Z,20.63
2018-04-13T16:07:29.643Z,19.80
2018-04-13T16:09:55.961Z,20.13
2018-04-13T16:12:22.415Z,18.80
2018-04-13T16:14:48.709Z,20.53
2018-04-13T16:17:15.095Z,20.43
2018-04-13T16:19:42.113Z,24.33
2018-04-13T16:22:08.383Z,21.87
2018-04-13T16:24:35.380Z,20.87
2018-04-13T16:27:01.618Z,22.10
2018-04-13T16:29:27.840Z,20.47
2018-04-13T16:31:54.056Z,22.10
2018-04-13T16:34:20.366Z,21.57
2018-04-13T16:36:46.596Z,21.77
2018-04-13T16:39:12.824Z,20.43
2018-04-13T16:41:39.095Z,22.23
2018-04-13T16:44:05.412Z,20.50
2018-04-13T16:46:31.652Z,22.13
2018-04-13T16:48:57.877Z,22.37
2018-04-13T16:51:24.138Z,23.23
2018-04-13T16:53:50.671Z,22.17
2018-04-13T16:56:17.693Z,22.47
2018-04-13T16:58:43.940Z,22.57
2018-04-13T17:01:11.009Z,23.17
2018-04-13T17:03:38.016Z,23.70
2018-04-13T17:06:04.240Z,22.30
2018-04-13T17:08:31.293Z,23.20
2018-04-13T17:10:57.537Z,23.63
2018-04-13T17:13:23.861Z,22.40
2018-04-13T17:15:50.879Z,23.13
2018-04-13T17:18:17.189Z,23.53
2018-04-13T17:20:43.483Z,23.43
2018-04-13T17:23:09.783Z,24.00
2018-04-13T17:25:36.071Z,24.87
2018-04-13T17:28:02.310Z,23.00
2018-04-13T17:30:28.556Z,23.73
2018-04-13T17:32:54.821Z,23.57
2018-04-13T17:35:21.800Z,23.90
2018-04-13T17:37:48.042Z,24.20
2018-04-13T17:40:14.297Z,24.10
2018-04-13T17:42:40.526Z,24.53
2018-04-13T17:45:06.979Z,24.67
2018-04-13T17:47:33.542Z,31.33
2018-04-13T17:50:00.004Z,40.10
2018-04-13T17:52:26.472Z,30.43
2018-04-13T17:54:54.653Z,26.13
2018-04-13T17:57:20.900Z,27.37
2018-04-13T17:59:47.147Z,25.87
2018-04-13T18:02:13.397Z,25.37
2018-04-13T18:04:39.868Z,25.83
2018-04-13T18:07:06.599Z,25.77
2018-04-13T18:09:33.066Z,25.03
2018-04-13T18:11:59.358Z,26.43
2018-04-13T18:14:25.660Z,26.03
2018-04-13T18:16:51.883Z,26.67
2018-04-13T18:19:18.103Z,26.10
2018-04-13T18:21:44.376Z,26.87
2018-04-13T18:24:10.709Z,27.43
2018-04-13T18:26:37.161Z,25.53
2018-04-13T18:29:03.425Z,27.93
2018-04-13T18:31:29.679Z,26.43
2018-04-13T18:33:55.912Z,26.90
2018-04-13T18:36:22.954Z,27.97
2018-04-13T18:38:49.193Z,27.67
2018-04-13T18:41:15.525Z,27.07
2018-04-13T18:43:42.581Z,27.20
2018-04-13T18:46:08.922Z,29.27
2018-04-13T18:48:35.222Z,28.17
2018-04-13T18:51:01.432Z,28.43
2018-04-13T18:53:27.664Z,28.97
2018-04-13T18:55:53.918Z,29.13
2018-04-13T18:58:20.253Z,28.47
2018-04-13T19:00:46.608Z,29.03
2018-04-13T19:03:13.045Z,29.37
2018-04-13T19:05:39.300Z,28.87
2018-04-13T19:08:05.632Z,28.87
2018-04-13T19:10:31.849Z,29.60
2018-04-13T19:12:58.117Z,29.20
2018-04-13T19:15:24.355Z,29.70
2018-04-13T19:17:50.793Z,29.97
2018-04-13T19:20:17.198Z,29.67
2018-04-13T19:22:43.489Z,30.57
2018-04-13T19:25:09.792Z,29.27
2018-04-13T19:27:36.029Z,30.03
2018-04-13T19:30:03.030Z,29.93
2018-04-13T19:32:29.417Z,31.50
2018-04-13T19:34:55.667Z,31.17
2018-04-13T19:37:22.871Z,30.20
2018-04-13T19:39:49.944Z,29.30
2018-04-13T19:42:16.237Z,31.73
2018-04-13T19:44:42.445Z,31.60
2018-04-13T19:47:08.688Z,29.33
2018-04-13T19:49:34.919Z,29.50
2018-04-13T19:52:01.227Z,30.10
2018-04-13T19:54:27.478Z,31.47
2018-04-13T19:56:53.761Z,30.83
2018-04-13T19:59:20.021Z,29.43
2018-04-13T20:01:46.266Z,30.63
2018-04-13T20:04:12.543Z,31.27
2018-04-13T20:06:38.780Z,30.33
2018-04-13T20:09:05.063Z,30.30
2018-04-13T20:11:31.288Z,31.03
2018-04-13T20:13:57.622Z,31.43
2018-04-13T20:16:24.136Z,32.50
2018-04-13T20:18:50.369Z,31.50
2018-04-13T20:21:16.659Z,31.40
2018-04-13T20:23:42.930Z,30.83
2018-04-13T20:26:09.200Z,30.37
2018-04-13T20:28:35.724Z,32.07
2018-04-13T20:31:02.034Z,30.83
2018-04-13T20:33:28.351Z,31.07
2018-04-13T20:35:54.651Z,30.90
2018-04-13T20:38:21.044Z,31.00
2018-04-13T20:40:47.266Z,30.80
2018-04-13T20:43:14.260Z,31.30
2018-04-13T20:45:40.515Z,30.80
2018-04-13T20:48:07.009Z,31.83
2018-04-13T20:50:33.317Z,31.03
2018-04-13T20:52:59.666Z,29.63
2018-04-13T20:55:25.963Z,30.63
2018-04-13T20:57:52.938Z,30.70
2018-04-13T21:00:19.182Z,31.47
2018-04-13T21:02:45.413Z,30.67
2018-04-13T21:05:11.644Z,30.47
2018-04-13T21:07:37.970Z,31.03
2018-04-13T21:10:04.319Z,31.40
2018-04-13T21:12:30.647Z,32.53
2018-04-13T21:14:56.927Z,32.37
2018-04-13T21:17:23.176Z,32.37
2018-04-13T21:19:49.441Z,31.37
2018-04-13T21:22:15.724Z,32.20
2018-04-13T21:24:42.025Z,30.97
2018-04-13T21:27:08.283Z,31.53
2018-04-13T21:29:34.539Z,31.77
2018-04-13T21:32:00.786Z,32.53
2018-04-13T21:34:27.784Z,32.87
2018-04-13T21:36:54.068Z,32.97
2018-04-13T21:39:20.492Z,32.80
2018-04-13T21:41:46.748Z,34.30
2018-04-13T21:44:13.897Z,33.73
2018-04-13T21:46:40.317Z,34.23
2018-04-13T21:49:06.607Z,35.10
2018-04-13T21:51:32.857Z,34.20
2018-04-13T21:53:59.080Z,33.80
2018-04-13T21:56:25.309Z,34.20
2018-04-13T21:58:52.452Z,35.90
2018-04-13T22:01:18.693Z,33.43
2018-04-13T22:03:45.054Z,35.53
2018-04-13T22:06:11.424Z,36.87
2018-04-13T22:08:37.665Z,36.63
2018-04-13T22:11:03.918Z,35.63
2018-04-13T22:13:30.185Z,34.93
2018-04-13T22:15:56.431Z,34.63
2018-04-13T22:18:22.821Z,34.93
2018-04-13T22:20:49.912Z,36.53
2018-04-13T22:23:16.297Z,34.73
2018-04-13T22:25:42.555Z,36.20
2018-04-13T22:28:08.771Z,34.83
2018-04-13T22:30:35.724Z,36.20
2018-04-13T22:33:01.948Z,34.93
2018-04-13T22:35:28.182Z,36.20
2018-04-13T22:37:54.432Z,36.70
2018-04-13T22:40:20.706Z,34.93
2018-04-13T22:42:47.726Z,35.07
2018-04-13T22:45:13.989Z,36.80
2018-04-13T22:47:40.249Z,36.83
2018-04-13T22:50:06.473Z,37.17
2018-04-13T22:52:32.736Z,37.57
2018-04-13T22:55:06.005Z,35.83
2018-04-13T22:57:32.305Z,37.13
2018-04-13T22:59:59.260Z,36.10
2018-04-13T23:02:25.525Z,38.07
2018-04-13T23:04:51.785Z,37.43
2018-04-13T23:07:18.869Z,39.43
2018-04-13T23:09:45.096Z,37.97
2018-04-13T23:12:11.318Z,39.73
2018-04-13T23:14:37.550Z,42.00
2018-04-13T23:17:03.776Z,40.63
2018-04-13T23:19:30.134Z,40.17
2018-04-13T23:21:56.390Z,40.57
2018-04-13T23:24:22.730Z,38.70
2018-04-13T23:26:49.733Z,38.97
2018-04-13T23:29:16.068Z,40.20
2018-04-13T23:31:42.372Z,41.77
2018-04-13T23:34:08.592Z,41.47
2018-04-13T23:36:34.840Z,42.00
2018-04-13T23:39:01.121Z,39.83
2018-04-13T23:41:28.214Z,40.50
2018-04-13T23:43:54.458Z,42.03
2018-04-13T23:46:20.677Z,39.60
2018-04-13T23:48:46.918Z,40.13
2018-04-13T23:51:13.144Z,41.90
2018-04-13T23:53:39.433Z,40.23
2018-04-13T23:56:05.688Z,42.63
2018-04-13T23:58:31.952Z,43.70
